sensor_id;sensor_type;location;lat;lon;timestamp;P1;durP1;ratioP1;P2;durP2;ratioP2
9524;SDS011;15940;48.734;9.112;2023-03-01T00:01:29;18.70;;;12.23;;
9524;SDS011;15940;48.734;9.112;2023-03-01T00:03:57;19.00;;;11.37;;
9524;SDS011;15940;48.734;9.112;2023-03-01T00:06:25;17.53;;;11.30;;
9524;SDS011;15940;48.734;9.112;2023-03-01T00:08:52;14.73;;;10.60;;
9524;SDS011;15940;48.734;9.112;2023-03-01T00:11:22;16.93;;;12.00;;
9524;SDS011;15940;48.734;9.112;2023-03-01T00:13:51;17.73;;;11.57;;
9524;SDS011;15940;48.734;9.112;2023-03-01T00:16:21;20.07;;;11.30;;
9524;SDS011;15940;48.734;9.112;2023-03-01T00:18:50;17.77;;;11.60;;
9524;SDS011;15940;48.734;9.112;2023-03-01T00:21:17;18.33;;;11.30;;
9524;SDS011;15940;48.734;9.112;2023-03-01T00:23:45;17.83;;;11.97;;
9524;SDS011;15940;48.734;9.112;2023-03-01T00:26:15;17.83;;;11.00;;
9524;SDS011;15940;48.734;9.112;2023-03-01T00:28:45;16.73;;;11.97;;
9524;SDS011;15940;48.734;9.112;2023-03-01T00:31:13;18.23;;;12.23;;
9524;SDS011;15940;48.734;9.112;2023-03-01T00:33:42;18.43;;;12.00;;
9524;SDS011;15940;48.734;9.112;2023-03-01T00:36:10;20.63;;;12.10;;
9524;SDS011;15940;48.734;9.112;2023-03-01T00:38:39;18.80;;;13.30;;
9524;SDS011;15940;48.734;9.112;2023-03-01T00:41:08;17.70;;;12.53;;
9524;SDS011;15940;48.734;9.112;2023-03-01T00:43:37;20.00;;;12.97;;
9524;SDS011;15940;48.734;9.112;2023-03-01T00:46:07;16.83;;;12.10;;
9524;SDS011;15940;48.734;9.112;2023-03-01T00:48:36;16.10;;;11.40;;
9524;SDS011;15940;48.734;9.112;2023-03-01T00:51:06;18.77;;;11.90;;
9524;SDS011;15940;48.734;9.112;2023-03-01T00:53:35;16.23;;;11.87;;
9524;SDS011;15940;48.734;9.112;2023-03-01T00:56:03;15.13;;;11.60;;
9524;SDS011;15940;48.734;9.112;2023-03-01T00:58:32;17.60;;;11.43;;
9524;SDS011;15940;48.734;9.112;2023-03-01T01:01:00;17.47;;;11.20;;
9524;SDS011;15940;48.734;9.112;2023-03-01T01:03:41;16.87;;;11.50;;
9524;SDS011;15940;48.734;9.112;2023-03-01T01:06:13;16.00;;;11.37;;
9524;SDS011;15940;48.734;9.112;2023-03-01T01:08:41;18.73;;;11.10;;
9524;SDS011;15940;48.734;9.112;2023-03-01T01:11:09;18.57;;;13.33;;
9524;SDS011;15940;48.734;9.112;2023-03-01T01:13:36;19.10;;;12.33;;
9524;SDS011;15940;48.734;9.112;2023-03-01T01:16:04;19.57;;;12.43;;
9524;SDS011;15940;48.734;9.112;2023-03-01T01:18:33;23.57;;;16.30;;
9524;SDS011;15940;48.734;9.112;2023-03-01T01:21:03;25.47;;;16.07;;
9524;SDS011;15940;48.734;9.112;2023-03-01T01:23:32;21.10;;;13.53;;
9524;SDS011;15940;48.734;9.112;2023-03-01T01:26:02;19.10;;;12.33;;
9524;SDS011;15940;48.734;9.112;2023-03-01T01:28:31;17.10;;;12.30;;
9524;SDS011;15940;48.734;9.112;2023-03-01T01:30:58;19.17;;;12.83;;
9524;SDS011;15940;48.734;9.112;2023-03-01T01:33:25;19.03;;;11.87;;
9524;SDS011;15940;48.734;9.112;2023-03-01T01:35:54;17.77;;;11.40;;
9524;SDS011;15940;48.734;9.112;2023-03-01T01:38:21;17.00;;;11.77;;
9524;SDS011;15940;48.734;9.112;2023-03-01T01:40:48;19.17;;;12.13;;
9524;SDS011;15940;48.734;9.112;2023-03-01T01:43:18;15.57;;;11.37;;
9524;SDS011;15940;48.734;9.112;2023-03-01T01:45:48;16.43;;;11.63;;
9524;SDS011;15940;48.734;9.112;2023-03-01T01:48:21;16.47;;;11.53;;
9524;SDS011;15940;48.734;9.112;2023-03-01T01:51:07;16.93;;;11.50;;
9524;SDS011;15940;48.734;9.112;2023-03-01T01:53:39;17.03;;;11.93;;
9524;SDS011;15940;48.734;9.112;2023-03-01T01:56:08;17.57;;;12.43;;
9524;SDS011;15940;48.734;9.112;2023-03-01T01:58:38;16.47;;;11.97;;
9524;SDS011;15940;48.734;9.112;2023-03-01T02:01:07;18.07;;;11.87;;
9524;SDS011;15940;48.734;9.112;2023-03-01T02:03:34;16.30;;;11.77;;
9524;SDS011;15940;48.734;9.112;2023-03-01T02:06:12;14.57;;;11.57;;
9524;SDS011;15940;48.734;9.112;2023-03-01T02:08:44;20.03;;;12.00;;
9524;SDS011;15940;48.734;9.112;2023-03-01T02:11:14;18.40;;;11.77;;
9524;SDS011;15940;48.734;9.112;2023-03-01T02:13:41;15.47;;;11.37;;
9524;SDS011;15940;48.734;9.112;2023-03-01T02:16:09;18.20;;;11.60;;
9524;SDS011;15940;48.734;9.112;2023-03-01T02:18:39;19.93;;;13.10;;
9524;SDS011;15940;48.734;9.112;2023-03-01T02:21:15;15.80;;;11.37;;
9524;SDS011;15940;48.734;9.112;2023-03-01T02:23:56;16.30;;;11.47;;
9524;SDS011;15940;48.734;9.112;2023-03-01T02:26:27;17.50;;;12.27;;
9524;SDS011;15940;48.734;9.112;2023-03-01T02:29:04;14.27;;;11.10;;
9524;SDS011;15940;48.734;9.112;2023-03-01T02:31:31;17.60;;;11.77;;
9524;SDS011;15940;48.734;9.112;2023-03-01T02:34:07;17.93;;;11.67;;
9524;SDS011;15940;48.734;9.112;2023-03-01T02:36:38;17.77;;;12.63;;
9524;SDS011;15940;48.734;9.112;2023-03-01T02:39:09;17.80;;;12.37;;
9524;SDS011;15940;48.734;9.112;2023-03-01T02:41:44;15.60;;;11.53;;
9524;SDS011;15940;48.734;9.112;2023-03-01T02:44:17;16.23;;;12.03;;
9524;SDS011;15940;48.734;9.112;2023-03-01T02:46:45;15.53;;;11.07;;
9524;SDS011;15940;48.734;9.112;2023-03-01T02:49:19;18.57;;;12.63;;
9524;SDS011;15940;48.734;9.112;2023-03-01T02:51:54;18.23;;;12.83;;
9524;SDS011;15940;48.734;9.112;2023-03-01T02:54:44;15.93;;;11.97;;
9524;SDS011;15940;48.734;9.112;2023-03-01T02:57:16;15.20;;;12.10;;
9524;SDS011;15940;48.734;9.112;2023-03-01T02:59:45;18.73;;;12.50;;
9524;SDS011;15940;48.734;9.112;2023-03-01T03:02:19;19.37;;;12.30;;
9524;SDS011;15940;48.734;9.112;2023-03-01T03:05:01;18.60;;;12.70;;
9524;SDS011;15940;48.734;9.112;2023-03-01T03:07:33;18.73;;;13.03;;
9524;SDS011;15940;48.734;9.112;2023-03-01T03:10:02;15.77;;;12.23;;
9524;SDS011;15940;48.734;9.112;2023-03-01T03:12:33;16.20;;;11.63;;
9524;SDS011;15940;48.734;9.112;2023-03-01T03:15:01;19.03;;;12.63;;
9524;SDS011;15940;48.734;9.112;2023-03-01T03:17:33;17.03;;;12.57;;
9524;SDS011;15940;48.734;9.112;2023-03-01T03:20:01;20.80;;;12.87;;
9524;SDS011;15940;48.734;9.112;2023-03-01T03:22:29;18.93;;;12.63;;
9524;SDS011;15940;48.734;9.112;2023-03-01T03:24:58;17.93;;;13.43;;
9524;SDS011;15940;48.734;9.112;2023-03-01T03:27:26;19.70;;;13.07;;
9524;SDS011;15940;48.734;9.112;2023-03-01T03:29:54;18.17;;;13.10;;
9524;SDS011;15940;48.734;9.112;2023-03-01T03:32:22;19.00;;;12.53;;
9524;SDS011;15940;48.734;9.112;2023-03-01T03:34:49;17.77;;;12.73;;
9524;SDS011;15940;48.734;9.112;2023-03-01T03:37:16;15.60;;;12.23;;
9524;SDS011;15940;48.734;9.112;2023-03-01T03:39:57;19.67;;;12.77;;
9524;SDS011;15940;48.734;9.112;2023-03-01T03:42:24;16.47;;;12.73;;
9524;SDS011;15940;48.734;9.112;2023-03-01T03:44:51;19.10;;;13.00;;
9524;SDS011;15940;48.734;9.112;2023-03-01T03:47:18;17.17;;;13.03;;
9524;SDS011;15940;48.734;9.112;2023-03-01T03:49:46;20.43;;;13.00;;
9524;SDS011;15940;48.734;9.112;2023-03-01T03:52:13;17.93;;;12.73;;
9524;SDS011;15940;48.734;9.112;2023-03-01T03:54:40;16.67;;;13.00;;
9524;SDS011;15940;48.734;9.112;2023-03-01T03:57:07;20.60;;;13.20;;
9524;SDS011;15940;48.734;9.112;2023-03-01T03:59:34;19.07;;;13.43;;
9524;SDS011;15940;48.734;9.112;2023-03-01T04:02:01;18.20;;;12.60;;
9524;SDS011;15940;48.734;9.112;2023-03-01T04:04:28;16.67;;;12.40;;
9524;SDS011;15940;48.734;9.112;2023-03-01T04:06:56;17.73;;;12.40;;
9524;SDS011;15940;48.734;9.112;2023-03-01T04:09:23;18.90;;;13.43;;
9524;SDS011;15940;48.734;9.112;2023-03-01T04:11:50;18.50;;;13.00;;
9524;SDS011;15940;48.734;9.112;2023-03-01T04:14:17;19.13;;;12.60;;
9524;SDS011;15940;48.734;9.112;2023-03-01T04:16:43;19.23;;;13.00;;
9524;SDS011;15940;48.734;9.112;2023-03-01T04:19:10;18.73;;;12.93;;
9524;SDS011;15940;48.734;9.112;2023-03-01T04:21:37;19.03;;;13.60;;
9524;SDS011;15940;48.734;9.112;2023-03-01T04:24:06;19.10;;;12.87;;
9524;SDS011;15940;48.734;9.112;2023-03-01T04:26:34;17.07;;;12.83;;
9524;SDS011;15940;48.734;9.112;2023-03-01T04:29:01;18.70;;;13.20;;
9524;SDS011;15940;48.734;9.112;2023-03-01T04:31:28;18.37;;;12.83;;
9524;SDS011;15940;48.734;9.112;2023-03-01T04:33:55;19.27;;;13.23;;
9524;SDS011;15940;48.734;9.112;2023-03-01T04:36:23;19.50;;;14.30;;
9524;SDS011;15940;48.734;9.112;2023-03-01T04:38:52;21.80;;;13.63;;
9524;SDS011;15940;48.734;9.112;2023-03-01T04:41:21;22.23;;;14.30;;
9524;SDS011;15940;48.734;9.112;2023-03-01T04:43:50;18.87;;;13.30;;
9524;SDS011;15940;48.734;9.112;2023-03-01T04:46:17;19.90;;;14.07;;
9524;SDS011;15940;48.734;9.112;2023-03-01T04:48:46;19.90;;;13.93;;
9524;SDS011;15940;48.734;9.112;2023-03-01T04:51:14;20.47;;;12.67;;
9524;SDS011;15940;48.734;9.112;2023-03-01T04:53:41;18.47;;;13.03;;
9524;SDS011;15940;48.734;9.112;2023-03-01T04:56:09;18.87;;;13.83;;
9524;SDS011;15940;48.734;9.112;2023-03-01T04:58:40;20.37;;;14.17;;
9524;SDS011;15940;48.734;9.112;2023-03-01T05:01:08;19.70;;;13.17;;
9524;SDS011;15940;48.734;9.112;2023-03-01T05:03:40;21.67;;;14.33;;
9524;SDS011;15940;48.734;9.112;2023-03-01T05:06:08;16.83;;;12.77;;
9524;SDS011;15940;48.734;9.112;2023-03-01T05:08:35;21.27;;;14.30;;
9524;SDS011;15940;48.734;9.112;2023-03-01T05:11:03;21.70;;;13.87;;
9524;SDS011;15940;48.734;9.112;2023-03-01T05:13:34;19.47;;;13.60;;
9524;SDS011;15940;48.734;9.112;2023-03-01T05:16:03;19.73;;;14.00;;
9524;SDS011;15940;48.734;9.112;2023-03-01T05:18:36;17.57;;;13.23;;
9524;SDS011;15940;48.734;9.112;2023-03-01T05:21:04;23.00;;;14.37;;
9524;SDS011;15940;48.734;9.112;2023-03-01T05:23:33;16.90;;;12.97;;
9524;SDS011;15940;48.734;9.112;2023-03-01T05:26:01;20.47;;;13.77;;
9524;SDS011;15940;48.734;9.112;2023-03-01T05:28:30;20.17;;;14.37;;
9524;SDS011;15940;48.734;9.112;2023-03-01T05:30:58;20.43;;;13.90;;
9524;SDS011;15940;48.734;9.112;2023-03-01T05:33:26;23.53;;;14.77;;
9524;SDS011;15940;48.734;9.112;2023-03-01T05:35:54;19.80;;;13.57;;
9524;SDS011;15940;48.734;9.112;2023-03-01T05:38:20;19.93;;;13.90;;
9524;SDS011;15940;48.734;9.112;2023-03-01T05:40:48;18.23;;;13.30;;
9524;SDS011;15940;48.734;9.112;2023-03-01T05:43:15;19.83;;;13.43;;
9524;SDS011;15940;48.734;9.112;2023-03-01T05:45:43;19.93;;;14.43;;
9524;SDS011;15940;48.734;9.112;2023-03-01T05:48:11;21.63;;;14.40;;
9524;SDS011;15940;48.734;9.112;2023-03-01T05:50:40;23.27;;;14.80;;
9524;SDS011;15940;48.734;9.112;2023-03-01T05:53:10;20.30;;;14.03;;
9524;SDS011;15940;48.734;9.112;2023-03-01T05:55:39;20.93;;;13.83;;
9524;SDS011;15940;48.734;9.112;2023-03-01T05:58:09;21.13;;;14.77;;
9524;SDS011;15940;48.734;9.112;2023-03-01T06:00:39;18.50;;;13.57;;
9524;SDS011;15940;48.734;9.112;2023-03-01T06:03:06;19.23;;;14.43;;
9524;SDS011;15940;48.734;9.112;2023-03-01T06:05:37;20.00;;;14.57;;
9524;SDS011;15940;48.734;9.112;2023-03-01T06:08:06;18.70;;;13.37;;
9524;SDS011;15940;48.734;9.112;2023-03-01T06:10:33;22.17;;;14.50;;
9524;SDS011;15940;48.734;9.112;2023-03-01T06:13:00;20.27;;;14.07;;
9524;SDS011;15940;48.734;9.112;2023-03-01T06:15:27;20.73;;;14.13;;
9524;SDS011;15940;48.734;9.112;2023-03-01T06:17:55;24.10;;;14.60;;
9524;SDS011;15940;48.734;9.112;2023-03-01T06:20:23;20.27;;;14.17;;
9524;SDS011;15940;48.734;9.112;2023-03-01T06:22:52;19.47;;;14.33;;
9524;SDS011;15940;48.734;9.112;2023-03-01T06:25:21;20.00;;;14.50;;
9524;SDS011;15940;48.734;9.112;2023-03-01T06:27:51;21.47;;;14.80;;
9524;SDS011;15940;48.734;9.112;2023-03-01T06:30:19;21.33;;;14.67;;
9524;SDS011;15940;48.734;9.112;2023-03-01T06:32:48;20.03;;;14.70;;
9524;SDS011;15940;48.734;9.112;2023-03-01T06:35:16;21.33;;;14.33;;
9524;SDS011;15940;48.734;9.112;2023-03-01T06:37:44;22.10;;;14.67;;
9524;SDS011;15940;48.734;9.112;2023-03-01T06:40:12;20.23;;;14.30;;
9524;SDS011;15940;48.734;9.112;2023-03-01T06:42:42;19.97;;;14.30;;
9524;SDS011;15940;48.734;9.112;2023-03-01T06:45:15;20.60;;;14.60;;
9524;SDS011;15940;48.734;9.112;2023-03-01T06:47:42;19.90;;;14.13;;
9524;SDS011;15940;48.734;9.112;2023-03-01T06:50:10;22.30;;;15.50;;
9524;SDS011;15940;48.734;9.112;2023-03-01T06:52:37;19.77;;;14.10;;
9524;SDS011;15940;48.734;9.112;2023-03-01T06:55:05;21.77;;;15.20;;
9524;SDS011;15940;48.734;9.112;2023-03-01T06:57:33;22.23;;;15.30;;
9524;SDS011;15940;48.734;9.112;2023-03-01T07:00:01;21.23;;;14.70;;
9524;SDS011;15940;48.734;9.112;2023-03-01T07:02:29;21.77;;;17.30;;
9524;SDS011;15940;48.734;9.112;2023-03-01T07:04:56;20.27;;;14.50;;
9524;SDS011;15940;48.734;9.112;2023-03-01T07:07:23;21.47;;;15.03;;
9524;SDS011;15940;48.734;9.112;2023-03-01T07:09:49;21.87;;;14.73;;
9524;SDS011;15940;48.734;9.112;2023-03-01T07:12:18;28.63;;;15.27;;
9524;SDS011;15940;48.734;9.112;2023-03-01T07:14:45;20.53;;;15.03;;
9524;SDS011;15940;48.734;9.112;2023-03-01T07:17:13;22.23;;;14.97;;
9524;SDS011;15940;48.734;9.112;2023-03-01T07:19:40;23.17;;;15.63;;
9524;SDS011;15940;48.734;9.112;2023-03-01T07:22:07;21.23;;;15.70;;
9524;SDS011;15940;48.734;9.112;2023-03-01T07:24:34;22.27;;;14.97;;
9524;SDS011;15940;48.734;9.112;2023-03-01T07:27:01;22.67;;;14.83;;
9524;SDS011;15940;48.734;9.112;2023-03-01T07:29:28;23.13;;;15.73;;
9524;SDS011;15940;48.734;9.112;2023-03-01T07:31:56;21.07;;;16.10;;
9524;SDS011;15940;48.734;9.112;2023-03-01T07:34:24;25.13;;;15.73;;
9524;SDS011;15940;48.734;9.112;2023-03-01T07:36:51;22.80;;;14.90;;
9524;SDS011;15940;48.734;9.112;2023-03-01T07:39:18;19.97;;;15.03;;
9524;SDS011;15940;48.734;9.112;2023-03-01T07:41:45;22.20;;;15.07;;
9524;SDS011;15940;48.734;9.112;2023-03-01T07:44:12;24.30;;;16.10;;
9524;SDS011;15940;48.734;9.112;2023-03-01T07:46:40;22.17;;;15.13;;
9524;SDS011;15940;48.734;9.112;2023-03-01T07:49:07;23.43;;;15.20;;
9524;SDS011;15940;48.734;9.112;2023-03-01T07:51:35;22.97;;;15.07;;
9524;SDS011;15940;48.734;9.112;2023-03-01T07:54:02;23.80;;;15.43;;
9524;SDS011;15940;48.734;9.112;2023-03-01T07:56:29;24.00;;;15.57;;
9524;SDS011;15940;48.734;9.112;2023-03-01T07:58:58;23.20;;;15.67;;
9524;SDS011;15940;48.734;9.112;2023-03-01T08:01:26;20.07;;;14.87;;
9524;SDS011;15940;48.734;9.112;2023-03-01T08:03:53;21.73;;;15.57;;
9524;SDS011;15940;48.734;9.112;2023-03-01T08:06:19;19.30;;;14.97;;
9524;SDS011;15940;48.734;9.112;2023-03-01T08:08:48;21.67;;;14.90;;
9524;SDS011;15940;48.734;9.112;2023-03-01T08:11:15;21.73;;;15.10;;
9524;SDS011;15940;48.734;9.112;2023-03-01T08:13:42;22.23;;;15.63;;
9524;SDS011;15940;48.734;9.112;2023-03-01T08:16:10;21.07;;;14.33;;
9524;SDS011;15940;48.734;9.112;2023-03-01T08:18:40;20.37;;;15.43;;
9524;SDS011;15940;48.734;9.112;2023-03-01T08:21:09;22.47;;;16.00;;
9524;SDS011;15940;48.734;9.112;2023-03-01T08:23:38;20.23;;;15.20;;
9524;SDS011;15940;48.734;9.112;2023-03-01T08:26:08;20.17;;;15.70;;
9524;SDS011;15940;48.734;9.112;2023-03-01T08:28:38;24.13;;;14.83;;
9524;SDS011;15940;48.734;9.112;2023-03-01T08:31:13;21.80;;;14.93;;
9524;SDS011;15940;48.734;9.112;2023-03-01T08:33:41;20.70;;;15.50;;
9524;SDS011;15940;48.734;9.112;2023-03-01T08:36:08;18.67;;;14.67;;
9524;SDS011;15940;48.734;9.112;2023-03-01T08:38:35;20.20;;;15.07;;
9524;SDS011;15940;48.734;9.112;2023-03-01T08:41:03;20.97;;;14.90;;
9524;SDS011;15940;48.734;9.112;2023-03-01T08:43:32;21.73;;;15.37;;
9524;SDS011;15940;48.734;9.112;2023-03-01T08:45:58;22.27;;;15.90;;
9524;SDS011;15940;48.734;9.112;2023-03-01T08:48:27;21.93;;;15.53;;
9524;SDS011;15940;48.734;9.112;2023-03-01T08:50:54;23.13;;;16.47;;
9524;SDS011;15940;48.734;9.112;2023-03-01T08:53:22;25.10;;;16.30;;
9524;SDS011;15940;48.734;9.112;2023-03-01T08:55:49;22.40;;;15.50;;
9524;SDS011;15940;48.734;9.112;2023-03-01T08:58:15;21.60;;;15.40;;
9524;SDS011;15940;48.734;9.112;2023-03-01T09:00:44;21.73;;;16.27;;
9524;SDS011;15940;48.734;9.112;2023-03-01T09:03:11;24.17;;;16.40;;
9524;SDS011;15940;48.734;9.112;2023-03-01T09:05:38;23.20;;;15.20;;
9524;SDS011;15940;48.734;9.112;2023-03-01T09:08:04;22.63;;;15.70;;
9524;SDS011;15940;48.734;9.112;2023-03-01T09:10:36;25.07;;;16.20;;
9524;SDS011;15940;48.734;9.112;2023-03-01T09:13:04;23.53;;;16.07;;
9524;SDS011;15940;48.734;9.112;2023-03-01T09:15:31;22.20;;;15.53;;
9524;SDS011;15940;48.734;9.112;2023-03-01T09:18:00;22.73;;;16.30;;
9524;SDS011;15940;48.734;9.112;2023-03-01T09:20:27;21.10;;;15.90;;
9524;SDS011;15940;48.734;9.112;2023-03-01T09:22:54;21.80;;;15.30;;
9524;SDS011;15940;48.734;9.112;2023-03-01T09:25:21;21.00;;;15.53;;
9524;SDS011;15940;48.734;9.112;2023-03-01T09:27:47;22.60;;;15.67;;
9524;SDS011;15940;48.734;9.112;2023-03-01T09:30:17;23.30;;;15.70;;
9524;SDS011;15940;48.734;9.112;2023-03-01T09:32:44;21.27;;;15.77;;
9524;SDS011;15940;48.734;9.112;2023-03-01T09:35:13;19.97;;;16.10;;
9524;SDS011;15940;48.734;9.112;2023-03-01T09:37:40;20.53;;;15.80;;
9524;SDS011;15940;48.734;9.112;2023-03-01T09:40:09;19.73;;;15.53;;
9524;SDS011;15940;48.734;9.112;2023-03-01T09:42:45;21.10;;;15.60;;
9524;SDS011;15940;48.734;9.112;2023-03-01T09:45:22;20.13;;;15.73;;
9524;SDS011;15940;48.734;9.112;2023-03-01T09:47:57;19.40;;;14.47;;
9524;SDS011;15940;48.734;9.112;2023-03-01T09:50:28;18.93;;;15.60;;
9524;SDS011;15940;48.734;9.112;2023-03-01T09:53:02;21.00;;;16.50;;
9524;SDS011;15940;48.734;9.112;2023-03-01T09:55:33;18.27;;;15.13;;
9524;SDS011;15940;48.734;9.112;2023-03-01T09:58:08;19.93;;;15.80;;
9524;SDS011;15940;48.734;9.112;2023-03-01T10:01:09;21.03;;;15.63;;
9524;SDS011;15940;48.734;9.112;2023-03-01T10:03:57;19.43;;;15.70;;
9524;SDS011;15940;48.734;9.112;2023-03-01T10:06:54;18.73;;;15.47;;
9524;SDS011;15940;48.734;9.112;2023-03-01T10:09:37;19.03;;;14.87;;
9524;SDS011;15940;48.734;9.112;2023-03-01T10:12:08;19.87;;;15.70;;
9524;SDS011;15940;48.734;9.112;2023-03-01T10:14:43;20.40;;;14.97;;
9524;SDS011;15940;48.734;9.112;2023-03-01T10:17:23;19.17;;;15.93;;
9524;SDS011;15940;48.734;9.112;2023-03-01T10:19:56;17.97;;;15.40;;
9524;SDS011;15940;48.734;9.112;2023-03-01T10:22:37;17.60;;;14.80;;
9524;SDS011;15940;48.734;9.112;2023-03-01T10:25:04;20.27;;;14.70;;
9524;SDS011;15940;48.734;9.112;2023-03-01T10:27:34;16.33;;;14.10;;
9524;SDS011;15940;48.734;9.112;2023-03-01T10:30:13;22.43;;;14.83;;
9524;SDS011;15940;48.734;9.112;2023-03-01T10:32:45;17.07;;;14.13;;
9524;SDS011;15940;48.734;9.112;2023-03-01T10:35:16;19.97;;;14.90;;
9524;SDS011;15940;48.734;9.112;2023-03-01T10:38:00;19.00;;;14.77;;
9524;SDS011;15940;48.734;9.112;2023-03-01T10:40:32;18.47;;;14.43;;
9524;SDS011;15940;48.734;9.112;2023-03-01T10:43:01;18.27;;;14.13;;
9524;SDS011;15940;48.734;9.112;2023-03-01T10:45:31;17.20;;;14.27;;
9524;SDS011;15940;48.734;9.112;2023-03-01T10:48:05;17.17;;;14.67;;
9524;SDS011;15940;48.734;9.112;2023-03-01T10:50:39;19.80;;;15.33;;
9524;SDS011;15940;48.734;9.112;2023-03-01T10:53:18;17.17;;;14.57;;
9524;SDS011;15940;48.734;9.112;2023-03-01T10:55:57;18.07;;;14.63;;
9524;SDS011;15940;48.734;9.112;2023-03-01T10:58:28;19.83;;;14.50;;
9524;SDS011;15940;48.734;9.112;2023-03-01T11:00:56;19.93;;;14.70;;
9524;SDS011;15940;48.734;9.112;2023-03-01T11:03:27;20.70;;;14.83;;
9524;SDS011;15940;48.734;9.112;2023-03-01T11:05:59;19.47;;;15.03;;
9524;SDS011;15940;48.734;9.112;2023-03-01T11:08:39;19.50;;;15.03;;
9524;SDS011;15940;48.734;9.112;2023-03-01T11:11:18;20.13;;;14.83;;
9524;SDS011;15940;48.734;9.112;2023-03-01T11:13:56;20.60;;;15.07;;
9524;SDS011;15940;48.734;9.112;2023-03-01T11:16:31;19.40;;;14.10;;
9524;SDS011;15940;48.734;9.112;2023-03-01T11:21:53;19.27;;;14.40;;
9524;SDS011;15940;48.734;9.112;2023-03-01T11:24:32;18.03;;;13.47;;
9524;SDS011;15940;48.734;9.112;2023-03-01T11:27:08;17.10;;;13.33;;
9524;SDS011;15940;48.734;9.112;2023-03-01T11:29:48;19.03;;;14.33;;
9524;SDS011;15940;48.734;9.112;2023-03-01T11:32:22;18.20;;;13.43;;
9524;SDS011;15940;48.734;9.112;2023-03-01T11:34:54;18.80;;;13.77;;
9524;SDS011;15940;48.734;9.112;2023-03-01T11:37:32;16.77;;;13.27;;
9524;SDS011;15940;48.734;9.112;2023-03-01T11:40:10;16.73;;;14.27;;
9524;SDS011;15940;48.734;9.112;2023-03-01T11:42:45;18.63;;;14.50;;
9524;SDS011;15940;48.734;9.112;2023-03-01T11:45:23;20.53;;;13.70;;
9524;SDS011;15940;48.734;9.112;2023-03-01T11:48:04;20.57;;;13.33;;
9524;SDS011;15940;48.734;9.112;2023-03-01T11:50:50;15.90;;;12.50;;
9524;SDS011;15940;48.734;9.112;2023-03-01T11:53:23;19.17;;;13.40;;
9524;SDS011;15940;48.734;9.112;2023-03-01T11:56:28;18.23;;;13.80;;
9524;SDS011;15940;48.734;9.112;2023-03-01T11:59:06;16.73;;;14.40;;
9524;SDS011;15940;48.734;9.112;2023-03-01T12:02:07;17.20;;;13.73;;
9524;SDS011;15940;48.734;9.112;2023-03-01T12:05:06;15.10;;;12.70;;
9524;SDS011;15940;48.734;9.112;2023-03-01T12:07:48;15.30;;;13.30;;
9524;SDS011;15940;48.734;9.112;2023-03-01T12:10:25;19.00;;;13.83;;
9524;SDS011;15940;48.734;9.112;2023-03-01T12:13:09;16.63;;;13.57;;
9524;SDS011;15940;48.734;9.112;2023-03-01T12:19:08;18.53;;;14.23;;
9524;SDS011;15940;48.734;9.112;2023-03-01T12:22:04;15.53;;;13.20;;
9524;SDS011;15940;48.734;9.112;2023-03-01T12:27:55;16.30;;;13.23;;
9524;SDS011;15940;48.734;9.112;2023-03-01T12:30:54;16.70;;;13.80;;
9524;SDS011;15940;48.734;9.112;2023-03-01T12:33:52;16.87;;;14.37;;
9524;SDS011;15940;48.734;9.112;2023-03-01T12:36:39;16.13;;;13.60;;
9524;SDS011;15940;48.734;9.112;2023-03-01T12:39:30;16.37;;;13.53;;
9524;SDS011;15940;48.734;9.112;2023-03-01T12:42:13;16.27;;;13.10;;
9524;SDS011;15940;48.734;9.112;2023-03-01T12:44:55;17.23;;;12.67;;
9524;SDS011;15940;48.734;9.112;2023-03-01T12:47:52;17.73;;;13.27;;
9524;SDS011;15940;48.734;9.112;2023-03-01T12:50:44;15.00;;;12.23;;
9524;SDS011;15940;48.734;9.112;2023-03-01T12:53:20;16.97;;;13.53;;
9524;SDS011;15940;48.734;9.112;2023-03-01T12:55:51;18.60;;;13.60;;
9524;SDS011;15940;48.734;9.112;2023-03-01T12:58:24;15.20;;;13.07;;
9524;SDS011;15940;48.734;9.112;2023-03-01T13:01:02;14.83;;;12.10;;
9524;SDS011;15940;48.734;9.112;2023-03-01T13:03:50;15.17;;;12.17;;
9524;SDS011;15940;48.734;9.112;2023-03-01T13:06:40;16.47;;;13.20;;
9524;SDS011;15940;48.734;9.112;2023-03-01T13:09:22;18.40;;;12.33;;
9524;SDS011;15940;48.734;9.112;2023-03-01T13:11:56;15.27;;;11.93;;
9524;SDS011;15940;48.734;9.112;2023-03-01T13:17:31;14.67;;;11.70;;
9524;SDS011;15940;48.734;9.112;2023-03-01T13:20:12;16.23;;;12.73;;
9524;SDS011;15940;48.734;9.112;2023-03-01T13:22:42;13.10;;;11.27;;
9524;SDS011;15940;48.734;9.112;2023-03-01T13:25:13;16.27;;;12.03;;
9524;SDS011;15940;48.734;9.112;2023-03-01T13:27:43;13.93;;;11.80;;
9524;SDS011;15940;48.734;9.112;2023-03-01T13:39:27;15.90;;;12.67;;
9524;SDS011;15940;48.734;9.112;2023-03-01T13:42:00;12.77;;;11.33;;
9524;SDS011;15940;48.734;9.112;2023-03-01T13:44:29;15.80;;;12.53;;
9524;SDS011;15940;48.734;9.112;2023-03-01T13:47:03;12.93;;;10.77;;
9524;SDS011;15940;48.734;9.112;2023-03-01T13:49:43;14.60;;;10.83;;
9524;SDS011;15940;48.734;9.112;2023-03-01T13:52:33;13.33;;;11.93;;
9524;SDS011;15940;48.734;9.112;2023-03-01T13:55:14;13.93;;;12.40;;
9524;SDS011;15940;48.734;9.112;2023-03-01T13:57:46;17.00;;;12.23;;
9524;SDS011;15940;48.734;9.112;2023-03-01T14:00:26;17.13;;;12.30;;
9524;SDS011;15940;48.734;9.112;2023-03-01T14:03:04;14.17;;;12.50;;
9524;SDS011;15940;48.734;9.112;2023-03-01T14:05:37;16.37;;;12.80;;
9524;SDS011;15940;48.734;9.112;2023-03-01T14:08:18;14.93;;;13.13;;
9524;SDS011;15940;48.734;9.112;2023-03-01T14:10:52;14.43;;;12.63;;
9524;SDS011;15940;48.734;9.112;2023-03-01T14:13:42;17.03;;;12.57;;
9524;SDS011;15940;48.734;9.112;2023-03-01T14:16:29;17.17;;;13.57;;
9524;SDS011;15940;48.734;9.112;2023-03-01T14:19:13;19.03;;;13.33;;
9524;SDS011;15940;48.734;9.112;2023-03-01T14:21:46;18.93;;;14.03;;
9524;SDS011;15940;48.734;9.112;2023-03-01T14:24:20;19.07;;;14.37;;
9524;SDS011;15940;48.734;9.112;2023-03-01T14:26:48;15.93;;;13.50;;
9524;SDS011;15940;48.734;9.112;2023-03-01T14:29:23;17.20;;;14.83;;
9524;SDS011;15940;48.734;9.112;2023-03-01T14:31:51;18.10;;;14.60;;
9524;SDS011;15940;48.734;9.112;2023-03-01T14:34:19;16.70;;;13.67;;
9524;SDS011;15940;48.734;9.112;2023-03-01T14:36:50;15.93;;;13.43;;
9524;SDS011;15940;48.734;9.112;2023-03-01T14:39:18;20.40;;;14.40;;
9524;SDS011;15940;48.734;9.112;2023-03-01T14:41:50;16.43;;;13.63;;
9524;SDS011;15940;48.734;9.112;2023-03-01T14:44:19;18.07;;;13.80;;
9524;SDS011;15940;48.734;9.112;2023-03-01T14:46:51;20.00;;;15.10;;
9524;SDS011;15940;48.734;9.112;2023-03-01T14:49:22;17.90;;;14.43;;
9524;SDS011;15940;48.734;9.112;2023-03-01T14:51:58;20.27;;;15.23;;
9524;SDS011;15940;48.734;9.112;2023-03-01T14:54:29;24.40;;;15.30;;
9524;SDS011;15940;48.734;9.112;2023-03-01T14:57:12;16.57;;;14.40;;
9524;SDS011;15940;48.734;9.112;2023-03-01T14:59:41;18.37;;;14.17;;
9524;SDS011;15940;48.734;9.112;2023-03-01T15:02:11;19.57;;;14.30;;
9524;SDS011;15940;48.734;9.112;2023-03-01T15:04:45;21.03;;;14.80;;
9524;SDS011;15940;48.734;9.112;2023-03-01T15:07:16;17.07;;;14.23;;
9524;SDS011;15940;48.734;9.112;2023-03-01T15:09:44;18.67;;;14.80;;
9524;SDS011;15940;48.734;9.112;2023-03-01T15:18:00;17.53;;;13.70;;
9524;SDS011;15940;48.734;9.112;2023-03-01T15:20:31;19.17;;;14.97;;
9524;SDS011;15940;48.734;9.112;2023-03-01T15:23:02;19.30;;;14.40;;
9524;SDS011;15940;48.734;9.112;2023-03-01T15:25:30;18.03;;;14.60;;
9524;SDS011;15940;48.734;9.112;2023-03-01T15:28:00;19.90;;;15.60;;